createdAt,value
2022-07-31T04:02:39.047Z,1.7
2022-07-31T04:04:53.458Z,1.8
2022-07-31T04:07:07.872Z,2
2022-07-31T04:09:33.992Z,2.2
2022-07-31T04:11:48.340Z,2.2
2022-07-31T04:14:02.675Z,2
2022-07-31T04:16:17.040Z,2.2
2022-07-31T04:18:31.415Z,2.1
2022-07-31T04:20:45.862Z,1.9
2022-07-31T04:23:00.271Z,2.8
2022-07-31T04:25:14.607Z,2.8
2022-07-31T04:27:28.969Z,2.3
2022-07-31T04:29:43.395Z,2.2
2022-07-31T04:31:57.747Z,2.2
2022-07-31T04:34:12.155Z,2.4
2022-07-31T04:36:29.127Z,2.7
2022-07-31T04:38:43.813Z,2.3
2022-07-31T04:40:58.159Z,2.6
2022-07-31T04:43:13.488Z,2.7
2022-07-31T04:45:27.889Z,2.7
2022-07-31T04:47:43.237Z,2.5
2022-07-31T04:49:59.807Z,2.5
2022-07-31T04:52:13.924Z,2.6
2022-07-31T04:54:28.343Z,2.5
2022-07-31T04:56:42.739Z,2.7
2022-07-31T04:58:57.074Z,2.6
2022-07-31T05:01:13.480Z,2.6
2022-07-31T05:03:28.781Z,2.8
2022-07-31T05:05:43.153Z,2.6
2022-07-31T05:07:57.535Z,2.8
2022-07-31T05:10:11.930Z,2.7
2022-07-31T05:12:26.253Z,2.4
2022-07-31T05:14:40.595Z,2.9
2022-07-31T05:16:54.954Z,2.7
2022-07-31T05:19:13.539Z,2.6
2022-07-31T05:21:26.829Z,2.7
2022-07-31T05:23:41.230Z,4
2022-07-31T05:25:55.616Z,2.4
2022-07-31T05:28:10.995Z,2.9
2022-07-31T05:30:29.946Z,2.5
2022-07-31T05:32:43.768Z,2.9
2022-07-31T05:34:59.114Z,2.8
2022-07-31T05:37:13.547Z,2.8
2022-07-31T05:39:27.916Z,2.5
2022-07-31T05:41:42.418Z,3.1
2022-07-31T05:43:56.745Z,2.9
2022-07-31T05:46:11.140Z,2.7
2022-07-31T05:48:25.531Z,2.9
2022-07-31T05:50:39.931Z,3
2022-07-31T05:52:54.297Z,2.7
2022-07-31T05:55:09.764Z,2.8
2022-07-31T05:57:26.423Z,2.6
2022-07-31T05:59:41.480Z,2.9
2022-07-31T06:01:55.867Z,2.1
2022-07-31T06:04:10.250Z,2.6
2022-07-31T06:06:24.619Z,2.5
2022-07-31T06:08:39.022Z,2.5
2022-07-31T06:10:53.378Z,2.4
2022-07-31T06:13:07.742Z,3
2022-07-31T06:15:22.121Z,3.6
2022-07-31T06:17:40.507Z,3.2
2022-07-31T06:19:54.802Z,2.6
2022-07-31T06:22:09.499Z,2.5
2022-07-31T06:24:23.542Z,2.7
2022-07-31T06:26:38.966Z,2.3
2022-07-31T06:28:53.337Z,2.4
2022-07-31T06:31:07.691Z,2.2
2022-07-31T06:33:36.901Z,2.7
2022-07-31T06:35:39.421Z,2.7
2022-07-31T06:37:53.828Z,2.3
2022-07-31T06:40:09.213Z,2.3
2022-07-31T06:42:23.666Z,2.4
2022-07-31T06:44:41.332Z,2.2
2022-07-31T06:46:55.563Z,2.3
2022-07-31T06:49:11.269Z,2.2
2022-07-31T06:51:31.838Z,2.2
2022-07-31T06:53:42.918Z,2.2
2022-07-31T06:55:57.336Z,3.5
2022-07-31T06:58:11.670Z,2.7
2022-07-31T07:00:26.032Z,2.2
2022-07-31T07:02:40.382Z,2.2
2022-07-31T07:05:05.421Z,2.4
2022-07-31T07:07:12.297Z,2.5
2022-07-31T07:09:26.668Z,2.4
2022-07-31T07:11:41.039Z,2.5
2022-07-31T07:13:57.264Z,2.4
2022-07-31T07:16:12.589Z,2.7
2022-07-31T07:18:27.048Z,2.5
2022-07-31T07:20:41.520Z,2.5
2022-07-31T07:22:56.867Z,2.7
2022-07-31T07:25:11.235Z,2.9
2022-07-31T07:27:25.752Z,2.7
2022-07-31T07:29:41.314Z,3.1
2022-07-31T07:31:56.896Z,2.4
2022-07-31T07:34:11.262Z,3
2022-07-31T07:36:26.587Z,2.7
2022-07-31T07:38:41.341Z,3.1
2022-07-31T07:40:55.925Z,2.7
2022-07-31T07:43:10.288Z,2.7
2022-07-31T07:45:24.664Z,2.8
2022-07-31T07:47:54.241Z,2.8
2022-07-31T07:49:56.541Z,2.7
2022-07-31T07:52:11.064Z,2.7
2022-07-31T07:54:25.303Z,2.6
2022-07-31T07:56:39.765Z,2.3
2022-07-31T07:58:54.153Z,2
2022-07-31T08:01:08.598Z,1.8
2022-07-31T08:03:47.962Z,2
2022-07-31T08:05:40.354Z,2
2022-07-31T08:07:54.745Z,1.9
2022-07-31T08:10:09.085Z,2.2
2022-07-31T08:12:23.524Z,1.9
2022-07-31T08:14:38.503Z,2.2
2022-07-31T08:16:52.936Z,1.5
2022-07-31T08:19:07.383Z,2
2022-07-31T08:21:21.792Z,1.8
2022-07-31T08:23:36.237Z,1.8
2022-07-31T08:25:51.710Z,1.6
2022-07-31T08:28:10.063Z,1.7
2022-07-31T08:30:22.571Z,1.7
2022-07-31T08:32:37.957Z,1.7
2022-07-31T08:34:52.388Z,1.4
2022-07-31T08:37:50.613Z,1.4
2022-07-31T08:39:24.154Z,1.3
2022-07-31T08:41:38.854Z,1.4
2022-07-31T08:44:00.999Z,1.3
2022-07-31T08:46:10.792Z,1.4
2022-07-31T08:48:25.303Z,1.8
2022-07-31T08:50:39.694Z,1.4
2022-07-31T08:52:54.776Z,1.8
2022-07-31T08:55:09.052Z,1.4
2022-07-31T08:57:24.937Z,1.4
2022-07-31T08:59:39.328Z,2.3
2022-07-31T09:01:53.904Z,2.6
2022-07-31T09:04:10.169Z,2.1
2022-07-31T09:06:24.653Z,3.7
2022-07-31T09:08:39.208Z,1.7
2022-07-31T09:10:54.215Z,1.8
2022-07-31T09:13:09.751Z,1.4
2022-07-31T09:15:24.090Z,1.8
2022-07-31T09:17:38.595Z,1.2
2022-07-31T09:19:55.159Z,1.3
2022-07-31T09:22:11.392Z,1.4
2022-07-31T09:24:25.754Z,1.5
2022-07-31T09:26:40.086Z,1.7
2022-07-31T09:28:54.514Z,1.3
2022-07-31T09:31:08.940Z,1.2
2022-07-31T09:33:23.357Z,1.3
2022-07-31T09:35:38.697Z,1.4
2022-07-31T09:37:54.093Z,1.5
2022-07-31T09:40:09.522Z,1.3
2022-07-31T09:42:23.917Z,1.3
2022-07-31T09:44:38.286Z,1.3
2022-07-31T09:46:52.648Z,1.5
2022-07-31T09:49:07.085Z,1.4
2022-07-31T09:51:21.438Z,1.4
2022-07-31T09:53:39.316Z,1.5
2022-07-31T09:55:52.185Z,1.9
2022-07-31T09:58:06.630Z,1.5
2022-07-31T10:00:20.922Z,2.3
2022-07-31T10:02:35.313Z,1.6
2022-07-31T10:04:49.779Z,1.4
2022-07-31T10:07:04.303Z,1.6
2022-07-31T10:09:18.537Z,1.5
2022-07-31T10:11:32.923Z,1.7
2022-07-31T10:13:47.421Z,2.1
2022-07-31T10:16:01.843Z,1.8
2022-07-31T10:18:16.204Z,1.3
2022-07-31T10:20:30.759Z,1.6
2022-07-31T10:22:45.154Z,1.5
2022-07-31T10:24:59.495Z,1.6
2022-07-31T10:27:14.087Z,1.7
2022-07-31T10:29:32.171Z,1.8
2022-07-31T10:31:44.802Z,1.5
2022-07-31T10:34:00.441Z,1.6
2022-07-31T10:36:14.897Z,1.6
2022-07-31T10:38:29.283Z,1.5
2022-07-31T10:40:45.644Z,1.8
2022-07-31T10:43:00.047Z,1.9
2022-07-31T10:45:14.483Z,1.7
2022-07-31T10:47:28.949Z,1.7
2022-07-31T10:49:43.436Z,1.8
2022-07-31T10:51:57.658Z,1.8
2022-07-31T10:54:12.145Z,2.4
2022-07-31T10:56:27.566Z,1.7
2022-07-31T10:58:42.127Z,2.1
2022-07-31T11:00:57.485Z,1.9
2022-07-31T11:03:14.001Z,2.1
2022-07-31T11:05:28.495Z,2
2022-07-31T11:07:43.090Z,1.9
2022-07-31T11:09:57.553Z,2.1
2022-07-31T11:12:12.137Z,2.2
2022-07-31T11:14:27.546Z,2.4
2022-07-31T11:16:41.925Z,2.3
2022-07-31T11:18:56.404Z,2.4
2022-07-31T11:21:36.278Z,2.4
2022-07-31T11:23:28.164Z,2.3
2022-07-31T11:25:42.626Z,2.5
2022-07-31T11:27:57.119Z,2.2
2022-07-31T11:30:14.369Z,2.4
2022-07-31T11:32:28.727Z,2.4
2022-07-31T11:34:43.245Z,2.2
2022-07-31T11:36:57.711Z,2.1
2022-07-31T11:39:12.113Z,2.1
2022-07-31T11:41:26.503Z,2
2022-07-31T11:43:40.910Z,2.3
2022-07-31T11:45:57.272Z,2.2
2022-07-31T11:48:14.626Z,2.1
2022-07-31T11:50:30.053Z,2.3
2022-07-31T11:52:44.388Z,2.6
2022-07-31T11:54:58.834Z,2.5
2022-07-31T11:57:13.293Z,2.5
2022-07-31T11:59:44.971Z,2.3
2022-07-31T12:01:45.217Z,2.3
2022-07-31T12:04:07.610Z,2.5
2022-07-31T12:06:17.031Z,2.3
2022-07-31T12:08:31.595Z,2.5
2022-07-31T12:10:46.152Z,2.3
2022-07-31T12:13:00.561Z,2.7
2022-07-31T12:15:14.983Z,2.4
2022-07-31T12:17:29.403Z,2.4
2022-07-31T12:19:43.838Z,2.5
2022-07-31T12:21:58.201Z,2
2022-07-31T12:24:12.660Z,2.1
2022-07-31T12:26:26.956Z,2
2022-07-31T12:28:41.340Z,2.2
2022-07-31T12:30:55.680Z,2.1
2022-07-31T12:33:10.104Z,2.1
2022-07-31T12:35:24.482Z,1.9
2022-07-31T12:37:39.888Z,2.2
2022-07-31T12:40:00.468Z,2
2022-07-31T12:42:11.759Z,2
2022-07-31T12:44:26.263Z,2.3
2022-07-31T12:46:40.660Z,2.1
2022-07-31T12:48:55.212Z,2.4
2022-07-31T12:51:09.480Z,2.2
2022-07-31T12:53:23.869Z,1.8
2022-07-31T12:55:38.272Z,2
2022-07-31T12:57:53.655Z,2
2022-07-31T13:00:08.171Z,2.1
2022-07-31T13:02:23.588Z,2
2022-07-31T13:04:38.027Z,1.9
2022-07-31T13:06:53.379Z,2.1
2022-07-31T13:09:07.807Z,2.4
2022-07-31T13:11:22.215Z,2.1
2022-07-31T13:13:36.705Z,2.1
2022-07-31T13:15:51.168Z,1.9
2022-07-31T13:18:05.573Z,1.9
2022-07-31T13:20:19.939Z,2.1
2022-07-31T13:22:34.351Z,2.4
2022-07-31T13:24:48.705Z,1.9
2022-07-31T13:27:03.353Z,2
2022-07-31T13:29:17.460Z,2.2
2022-07-31T13:31:31.930Z,2.2
2022-07-31T13:33:46.327Z,2
2022-07-31T13:36:00.730Z,2.2
2022-07-31T13:38:15.118Z,2
2022-07-31T13:40:29.528Z,2.1
2022-07-31T13:42:43.959Z,2.3
2022-07-31T13:45:01.970Z,2.2
2022-07-31T13:47:15.625Z,2
2022-07-31T13:49:30.080Z,2.1
2022-07-31T13:51:44.460Z,2.4
2022-07-31T13:53:58.866Z,2.3
2022-07-31T13:56:13.289Z,2
2022-07-31T13:58:28.641Z,2.4
2022-07-31T14:00:43.012Z,2.4
2022-07-31T14:02:58.416Z,2.5
2022-07-31T14:05:14.776Z,2.4
2022-07-31T14:07:45.526Z,2.1
2022-07-31T14:09:54.941Z,2.2
2022-07-31T14:12:06.249Z,2.4
2022-07-31T14:14:22.408Z,2.3
2022-07-31T14:16:37.559Z,2.1
2022-07-31T14:18:52.025Z,2.2
2022-07-31T14:21:06.356Z,2.2
2022-07-31T14:23:20.764Z,2.2
2022-07-31T14:25:36.174Z,2.1
2022-07-31T14:27:50.601Z,1.9
2022-07-31T14:30:05.029Z,2.5
2022-07-31T14:32:19.606Z,2
2022-07-31T14:34:36.167Z,1.9
2022-07-31T14:36:50.184Z,2.3
2022-07-31T14:39:04.776Z,2
2022-07-31T14:41:19.244Z,2.2
2022-07-31T14:43:34.730Z,2.2
2022-07-31T14:45:52.130Z,2.3
2022-07-31T14:48:06.468Z,2.6
2022-07-31T14:50:21.965Z,2.5
2022-07-31T14:52:36.272Z,2.3
2022-07-31T14:54:50.766Z,2.2
2022-07-31T14:57:05.104Z,2.2
2022-07-31T14:59:19.520Z,2.1
2022-07-31T15:01:33.954Z,1.9
2022-07-31T15:03:48.397Z,2.2
2022-07-31T15:06:37.891Z,2
2022-07-31T15:08:20.109Z,2
2022-07-31T15:10:34.490Z,2.2
2022-07-31T15:12:48.906Z,2.3
2022-07-31T15:15:03.328Z,2.1
2022-07-31T15:17:17.690Z,2.5
2022-07-31T15:19:32.159Z,2.1
2022-07-31T15:22:09.547Z,2.3
2022-07-31T15:24:03.905Z,2.4
2022-07-31T15:26:18.261Z,2.3
2022-07-31T15:28:32.691Z,2.2
2022-07-31T15:30:47.064Z,2.1
2022-07-31T15:33:02.441Z,2.2
2022-07-31T15:35:16.855Z,2.1
2022-07-31T15:37:31.270Z,2.3
2022-07-31T15:40:01.322Z,2.2
2022-07-31T15:42:03.130Z,2.4
2022-07-31T15:44:17.541Z,2.3
2022-07-31T15:46:31.945Z,2.5
2022-07-31T15:48:46.389Z,2.3
2022-07-31T15:51:01.669Z,2.2
2022-07-31T15:53:16.072Z,2.5
2022-07-31T15:55:30.445Z,2.6
2022-07-31T15:57:44.836Z,2.5
2022-07-31T16:00:00.166Z,1.9
2022-07-31T16:02:14.675Z,1.8
2022-07-31T16:04:31.474Z,2
2022-07-31T16:06:48.963Z,2.1
2022-07-31T16:09:02.930Z,1.8
2022-07-31T16:11:17.391Z,1.9
2022-07-31T16:13:31.749Z,1.7
2022-07-31T16:15:46.105Z,1.8
2022-07-31T16:18:00.558Z,1.9
2022-07-31T16:20:20.586Z,1.8
2022-07-31T16:22:31.277Z,1.9
2022-07-31T16:24:45.653Z,1.8
2022-07-31T16:27:00.072Z,2
2022-07-31T16:29:17.361Z,2.6
2022-07-31T16:31:31.806Z,2
2022-07-31T16:33:50.744Z,1.7
2022-07-31T16:36:03.555Z,1.7
2022-07-31T16:38:17.930Z,1.8
2022-07-31T16:40:33.287Z,1.9
2022-07-31T16:42:47.698Z,1.8
2022-07-31T16:45:02.063Z,1.8
2022-07-31T16:47:16.478Z,1.8
2022-07-31T16:49:35.785Z,1.7
2022-07-31T16:51:49.220Z,1.8
2022-07-31T16:54:10.205Z,1.6
2022-07-31T16:56:21.032Z,1.8
2022-07-31T16:58:35.488Z,1.9
2022-07-31T17:00:49.915Z,1.7
2022-07-31T17:03:04.282Z,1.7
2022-07-31T17:05:18.820Z,1.6
2022-07-31T17:07:34.256Z,1.8
2022-07-31T17:09:48.782Z,1.7
2022-07-31T17:12:03.512Z,1.7
2022-07-31T17:14:17.678Z,1.7
2022-07-31T17:16:33.394Z,1.5
2022-07-31T17:18:52.460Z,1.5
2022-07-31T17:21:06.328Z,1.6
2022-07-31T17:23:33.220Z,1.3
2022-07-31T17:25:47.913Z,1.4
2022-07-31T17:28:03.794Z,1.2
2022-07-31T17:30:18.221Z,1.4
2022-07-31T17:32:32.574Z,1.2
2022-07-31T17:34:49.586Z,1.3
2022-07-31T17:37:04.127Z,1.1
2022-07-31T17:39:18.258Z,1.4
2022-07-31T17:41:32.732Z,1.3
2022-07-31T17:43:50.263Z,1.1
2022-07-31T17:46:08.610Z,1.3
2022-07-31T17:48:22.288Z,1.5
2022-07-31T17:50:36.804Z,1.4
2022-07-31T17:52:51.163Z,1.4
2022-07-31T17:55:05.525Z,0.9
2022-07-31T17:57:20.096Z,1.2
2022-07-31T17:59:35.482Z,1.2
2022-07-31T18:01:52.314Z,1.2
2022-07-31T18:04:06.301Z,1.1
2022-07-31T18:06:20.666Z,1.3
2022-07-31T18:08:35.065Z,1.3
2022-07-31T18:10:54.543Z,1.1
2022-07-31T18:13:06.796Z,1.3
2022-07-31T18:15:21.198Z,1.1
2022-07-31T18:17:36.721Z,1.1
2022-07-31T18:19:51.210Z,1.1
2022-07-31T18:22:06.083Z,1.2
2022-07-31T18:24:21.412Z,1.1
2022-07-31T18:26:35.796Z,1
2022-07-31T18:28:50.149Z,1
2022-07-31T18:31:04.545Z,1.3
2022-07-31T18:33:19.973Z,1.2
2022-07-31T18:35:34.385Z,1.2
2022-07-31T18:37:48.845Z,0.9
2022-07-31T18:40:03.199Z,1.1
2022-07-31T18:42:17.813Z,1
2022-07-31T18:44:32.227Z,1.1
2022-07-31T18:46:46.758Z,0.9
2022-07-31T18:49:01.359Z,1
2022-07-31T18:51:15.849Z,0.9
2022-07-31T18:53:30.271Z,1.1
2022-07-31T18:55:44.649Z,1.1
2022-07-31T18:58:00.010Z,0.9
2022-07-31T19:00:14.372Z,1.1
2022-07-31T19:02:28.814Z,1.1
2022-07-31T19:04:43.353Z,1.1
2022-07-31T19:06:58.729Z,1.1
2022-07-31T19:09:13.109Z,1
2022-07-31T19:11:27.572Z,1
2022-07-31T19:13:41.848Z,0.9
2022-07-31T19:15:56.302Z,0.9
2022-07-31T19:18:12.750Z,0.9
2022-07-31T19:20:40.194Z,0.9
2022-07-31T19:22:45.497Z,0.8
2022-07-31T19:24:59.924Z,0.9
2022-07-31T19:27:14.376Z,0.9
2022-07-31T19:29:28.843Z,0.8
2022-07-31T19:31:43.431Z,1
2022-07-31T19:33:58.794Z,0.8
2022-07-31T19:36:13.295Z,1
2022-07-31T19:38:30.877Z,1
2022-07-31T19:40:45.307Z,1.3
2022-07-31T19:42:59.676Z,1.1
2022-07-31T19:45:14.153Z,1
2022-07-31T19:47:28.622Z,1
2022-07-31T19:49:43.022Z,1.1
2022-07-31T19:51:57.424Z,1
2022-07-31T19:54:11.876Z,1
2022-07-31T19:56:26.353Z,1.5
2022-07-31T19:58:40.710Z,1.1
2022-07-31T20:00:55.097Z,1
2022-07-31T20:03:09.644Z,0.8
2022-07-31T20:05:24.907Z,1.5
2022-07-31T20:07:39.301Z,1.3
2022-07-31T20:09:53.737Z,1.1
2022-07-31T20:12:08.480Z,1.1
2022-07-31T20:14:22.571Z,1.1
2022-07-31T20:16:37.121Z,1.1
2022-07-31T20:18:51.561Z,0.9
2022-07-31T20:21:05.956Z,1.2
2022-07-31T20:23:20.362Z,1.1
2022-07-31T20:25:34.758Z,1.2
2022-07-31T20:27:49.299Z,1.3
2022-07-31T20:30:04.636Z,1.1
2022-07-31T20:32:21.639Z,1.1
2022-07-31T20:34:36.446Z,1
2022-07-31T20:36:53.294Z,1
2022-07-31T20:39:11.816Z,1
2022-07-31T20:41:25.858Z,1
2022-07-31T20:43:40.528Z,1
2022-07-31T20:45:54.875Z,1
2022-07-31T20:48:09.311Z,0.9
2022-07-31T20:50:23.876Z,1
2022-07-31T20:52:38.264Z,1.3
2022-07-31T20:54:52.686Z,1
2022-07-31T20:57:07.080Z,1
2022-07-31T20:59:22.405Z,1.3
2022-07-31T21:01:37.908Z,1.1
2022-07-31T21:03:52.199Z,1.3
2022-07-31T21:06:06.643Z,1.2
2022-07-31T21:08:21.134Z,1.3
2022-07-31T21:10:35.570Z,1.1
2022-07-31T21:12:49.979Z,1.2
2022-07-31T21:15:05.468Z,1.1
2022-07-31T21:17:20.862Z,1.2
2022-07-31T21:19:35.366Z,1.3
2022-07-31T21:21:49.842Z,1.1
2022-07-31T21:24:04.271Z,1.3
2022-07-31T21:26:18.696Z,1.1
2022-07-31T21:28:33.081Z,1.1
